Time;durP1;ratioP1;P1;durP2;ratioP2;P2;SDS_P1;SDS_P2;PMS_P1;PMS_P2;Temp;Humidity;BMP_temperature;BMP_pressure;BME280_temperature;BME280_humidity;BME280_pressure;Samples;Min_cycle;Max_cycle;Signal;HPM_P1;HPM_P2
2022/05/23 00:02:00;;;;;;;9.85;6.53;;;20.00;1.00;;;;;;5073966;28;20224;-66
2022/05/23 00:04:27;;;;;;;11.90;5.35;;;19.90;1.00;;;;;;5074307;28;20200;-66
2022/05/23 00:06:54;;;;;;;10.18;6.53;;;19.90;99.90;;;;;;5074252;28;20172;-66
2022/05/23 00:09:20;;;;;;;10.93;7.05;;;19.90;1.00;;;;;;5074588;28;20195;-67
2022/05/23 00:11:46;;;;;;;15.65;8.68;;;19.90;1.00;;;;;;5074549;28;20173;-67
2022/05/23 00:14:12;;;;;;;8.45;5.40;;;19.80;1.00;;;;;;5074262;28;20172;-67
2022/05/23 00:16:40;;;;;;;6.63;4.50;;;19.60;99.90;;;;;;5073960;28;20201;-66
2022/05/23 00:19:09;;;;;;;8.70;4.35;;;19.50;1.00;;;;;;5074437;28;20164;-66
2022/05/23 00:21:35;;;;;;;6.35;4.45;;;19.40;5.00;;;;;;5074209;28;20172;-66
2022/05/23 00:24:01;;;;;;;7.97;4.55;;;19.40;1.00;;;;;;5074034;28;20608;-67
2022/05/23 00:26:26;;;;;;;6.95;4.43;;;19.40;99.90;;;;;;5074147;28;20226;-66
2022/05/23 00:28:52;;;;;;;6.65;4.78;;;19.50;1.00;;;;;;5074158;28;20169;-66
2022/05/23 00:31:18;;;;;;;6.28;4.63;;;19.40;1.00;;;;;;5073687;28;20172;-67
2022/05/23 00:36:30;;;;;;;7.13;5.00;;;19.40;99.90;;;;;;5073791;28;20211;-66
2022/05/23 00:38:56;;;;;;;8.07;5.15;;;19.40;99.90;;;;;;5073916;28;20165;-66
2022/05/23 00:44:22;;;;;;;7.13;4.68;;;19.40;1.00;;;;;;5073315;28;20214;-66
2022/05/23 00:46:56;;;;;;;7.70;4.60;;;19.40;1.00;;;;;;5073513;28;20195;-66
2022/05/23 00:49:29;;;;;;;7.63;5.13;;;19.50;1.00;;;;;;5073695;28;20168;-66
2022/05/23 00:51:58;;;;;;;7.15;5.07;;;19.50;99.90;;;;;;5072212;28;20172;-66
2022/05/23 00:54:28;;;;;;;7.95;4.88;;;19.60;4.00;;;;;;5073710;28;20172;-66
2022/05/23 00:56:53;;;;;;;9.82;5.10;;;19.60;1.00;;;;;;5073377;28;20250;-65
2022/05/23 00:59:27;;;;;;;7.60;5.07;;;19.70;1.00;;;;;;5073386;28;20180;-66
2022/05/23 01:01:52;;;;;;;9.15;5.10;;;19.60;1.00;;;;;;5073331;28;20303;-67
2022/05/23 01:04:18;;;;;;;4.78;4.32;;;19.50;1.00;;;;;;5073290;28;20227;-67
2022/05/23 01:06:44;;;;;;;7.88;4.90;;;19.50;54.40;;;;;;5073479;28;20177;-65
2022/05/23 01:09:10;;;;;;;7.38;4.70;;;19.60;99.90;;;;;;5073452;28;20180;-65
2022/05/23 01:11:37;;;;;;;9.30;5.10;;;19.60;1.00;;;;;;5073565;28;20188;-66
2022/05/23 01:14:03;;;;;;;9.45;5.60;;;19.60;1.00;;;;;;5073017;28;20225;-66
2022/05/23 01:16:28;;;;;;;10.23;5.30;;;19.60;1.00;;;;;;5073218;28;20196;-65
2022/05/23 01:18:54;;;;;;;9.10;5.72;;;19.60;99.90;;;;;;5073288;28;20172;-65
2022/05/23 01:21:33;;;;;;;7.25;5.07;;;19.70;1.00;;;;;;5073372;28;20165;-67
2022/05/23 01:24:09;;;;;;;7.85;5.18;;;19.80;99.90;;;;;;5073145;28;20191;-67
2022/05/23 01:26:34;;;;;;;8.80;5.82;;;19.80;99.90;;;;;;5073206;28;20632;-67
2022/05/23 01:29:00;;;;;;;8.57;5.45;;;19.80;99.90;;;;;;5072890;28;20251;-67
2022/05/23 01:31:26;;;;;;;7.82;5.43;;;19.70;15.30;;;;;;5073163;28;20252;-67
2022/05/23 01:33:51;;;;;;;10.15;5.90;;;19.70;1.00;;;;;;5072998;28;20194;-67
2022/05/23 01:36:17;;;;;;;7.07;5.65;;;19.70;1.00;;;;;;5072795;28;20224;-67
2022/05/23 01:38:43;;;;;;;9.38;5.45;;;19.80;99.90;;;;;;5071609;28;20172;-67
2022/05/23 01:41:09;;;;;;;7.43;5.55;;;19.90;3.20;;;;;;5072931;28;20615;-67
2022/05/23 01:43:35;;;;;;;7.32;5.10;;;19.90;99.90;;;;;;5071246;28;20184;-67
2022/05/23 01:46:01;;;;;;;8.98;5.63;;;20.00;96.70;;;;;;5072809;28;20173;-67
2022/05/23 01:48:27;;;;;;;9.65;5.40;;;20.10;1.00;;;;;;5073043;28;20522;-67
2022/05/23 01:50:52;;;;;;;8.88;5.80;;;20.00;1.00;;;;;;5073085;28;20171;-67
2022/05/23 01:53:18;;;;;;;12.52;6.15;;;19.90;99.90;;;;;;5072885;28;20548;-67
2022/05/23 01:55:44;;;;;;;7.68;5.72;;;19.80;99.90;;;;;;5073303;28;20165;-67
2022/05/23 01:58:09;;;;;;;9.80;6.13;;;19.70;1.00;;;;;;5075176;28;20732;-67
2022/05/23 02:03:20;;;;;;;8.05;6.28;;;19.80;1.00;;;;;;5077125;28;20183;-65
2022/05/23 02:05:46;;;;;;;7.07;5.28;;;19.70;99.90;;;;;;5076732;28;20188;-67
2022/05/23 02:08:12;;;;;;;12.77;5.82;;;19.60;1.00;;;;;;5076752;28;20168;-67
2022/05/23 02:10:38;;;;;;;8.52;5.78;;;19.60;1.00;;;;;;5076994;28;20184;-67
2022/05/23 02:13:04;;;;;;;6.32;5.53;;;19.60;1.00;;;;;;5076253;28;20537;-67
2022/05/23 02:15:32;;;;;;;8.25;5.35;;;19.60;1.00;;;;;;5076494;28;20173;-67
2022/05/23 02:17:59;;;;;;;10.70;6.05;;;19.60;1.00;;;;;;5076346;28;20204;-67
2022/05/23 02:20:26;;;;;;;10.27;5.60;;;19.60;1.00;;;;;;5076586;28;20192;-66
2022/05/23 02:22:52;;;;;;;11.18;6.00;;;19.60;1.00;;;;;;5076452;28;20296;-66
2022/05/23 02:25:17;;;;;;;9.80;5.22;;;19.60;1.00;;;;;;5076517;28;20306;-66
2022/05/23 02:27:43;;;;;;;8.25;5.65;;;19.60;1.00;;;;;;5076284;28;20172;-65
2022/05/23 02:30:09;;;;;;;9.07;5.43;;;19.70;1.00;;;;;;5076252;28;20177;-64
2022/05/23 02:32:34;;;;;;;9.85;6.22;;;19.70;1.00;;;;;;5076196;28;20177;-66
2022/05/23 02:35:00;;;;;;;9.52;5.40;;;19.50;1.00;;;;;;5074961;28;20263;-67
2022/05/23 02:37:26;;;;;;;9.90;5.38;;;19.40;99.90;;;;;;5076281;28;20208;-65
2022/05/23 02:39:52;;;;;;;9.27;5.53;;;19.20;1.00;;;;;;5075805;28;20184;-66
2022/05/23 02:42:17;;;;;;;7.07;5.70;;;19.30;1.00;;;;;;5075914;28;20177;-65
2022/05/23 02:44:44;;;;;;;10.52;6.40;;;19.30;99.90;;;;;;5075880;28;20530;-66
2022/05/23 02:47:10;;;;;;;8.88;6.22;;;19.10;99.90;;;;;;5075911;28;20168;-66
2022/05/23 02:49:36;;;;;;;11.35;6.75;;;19.00;1.00;;;;;;5075918;28;20675;-65
2022/05/23 02:52:01;;;;;;;8.25;6.30;;;19.00;1.00;;;;;;5075814;28;20200;-66
2022/05/23 02:54:27;;;;;;;9.07;6.78;;;18.90;1.00;;;;;;5074255;28;20197;-66
2022/05/23 02:56:53;;;;;;;10.57;6.20;;;18.80;1.00;;;;;;5075663;28;20668;-66
2022/05/23 02:59:18;;;;;;;7.57;6.10;;;18.80;1.00;;;;;;5075754;28;20252;-67
2022/05/23 03:04:28;;;;;;;13.80;6.93;;;18.70;1.00;;;;;;5075659;28;20191;-66
2022/05/23 03:06:54;;;;;;;11.20;6.77;;;18.60;1.00;;;;;;5074267;28;20259;-66
2022/05/23 03:09:19;;;;;;;11.97;6.57;;;18.50;1.00;;;;;;5074237;28;20172;-66
2022/05/23 03:11:45;;;;;;;7.13;5.90;;;18.50;1.00;;;;;;5075373;28;20259;-66
2022/05/23 03:14:11;;;;;;;11.85;5.40;;;18.50;1.00;;;;;;5075209;28;20215;-66
2022/05/23 03:16:36;;;;;;;9.83;5.70;;;18.50;1.00;;;;;;5075350;28;20208;-66
2022/05/23 03:19:02;;;;;;;9.40;5.20;;;18.50;1.00;;;;;;5075257;28;20171;-66
2022/05/23 03:26:58;;;;;;;14.33;6.60;;;17.90;1.00;;;;;;5075083;28;20717;-66
2022/05/23 03:29:24;;;;;;;12.87;7.50;;;17.70;1.00;;;;;;5074979;28;20176;-66
2022/05/23 03:31:50;;;;;;;14.00;6.40;;;17.70;1.00;;;;;;5075057;28;20173;-66
2022/05/23 03:34:16;;;;;;;8.37;5.60;;;17.70;1.00;;;;;;5074870;28;20655;-67
2022/05/23 03:36:42;;;;;;;12.93;6.43;;;17.70;1.00;;;;;;5073742;28;20598;-66
2022/05/23 03:39:08;;;;;;;10.07;5.70;;;17.90;1.00;;;;;;5074541;28;20183;-66
2022/05/23 03:41:33;;;;;;;10.27;6.37;;;17.90;1.00;;;;;;5074680;28;20180;-66
2022/05/23 03:43:59;;;;;;;10.60;6.40;;;17.80;1.00;;;;;;5074616;28;20248;-66
2022/05/23 03:46:25;;;;;;;11.77;6.60;;;17.70;1.00;;;;;;5074786;28;20172;-66
2022/05/23 03:48:50;;;;;;;12.07;6.87;;;17.60;1.00;;;;;;5074728;28;20172;-66
2022/05/23 03:51:16;;;;;;;11.43;6.83;;;17.50;1.00;;;;;;5074493;28;20172;-66
2022/05/23 03:53:42;;;;;;;13.80;6.40;;;17.40;1.00;;;;;;5073513;28;20534;-67
2022/05/23 03:56:07;;;;;;;12.20;6.47;;;17.50;1.00;;;;;;5074436;28;20169;-66
2022/05/23 03:58:33;;;;;;;11.20;6.60;;;17.50;1.00;;;;;;5074411;28;20759;-67
2022/05/23 04:01:11;;;;;;;13.87;6.80;;;17.40;1.00;;;;;;5074261;28;20707;-68
2022/05/23 04:03:37;;;;;;;12.43;6.90;;;17.40;1.00;;;;;;5073997;28;20203;-67
2022/05/23 04:06:03;;;;;;;8.80;7.00;;;17.40;1.00;;;;;;5074023;28;20197;-65
2022/05/23 04:08:30;;;;;;;8.73;6.87;;;17.40;1.00;;;;;;5073485;28;20267;-67
2022/05/23 04:10:56;;;;;;;7.43;6.60;;;17.40;1.00;;;;;;5073937;28;20203;-65
2022/05/23 04:13:22;;;;;;;9.33;7.13;;;17.50;1.00;;;;;;5073581;28;20576;-66
2022/05/23 04:15:49;;;;;;;10.23;6.43;;;17.60;1.00;;;;;;5073803;28;20252;-66
2022/05/23 04:18:15;;;;;;;10.87;7.10;;;17.70;1.00;;;;;;5073819;28;20215;-66
2022/05/23 04:20:41;;;;;;;17.13;7.63;;;17.80;1.00;;;;;;5073950;28;20168;-66
2022/05/23 04:23:09;;;;;;;14.07;7.50;;;17.80;1.00;;;;;;5072865;28;20535;-67
2022/05/23 04:25:43;;;;;;;21.30;7.60;;;17.90;1.00;;;;;;5072546;28;20653;-65
2022/05/23 04:28:10;;;;;;;22.77;8.63;;;17.80;1.00;;;;;;5073839;28;20184;-66
2022/05/23 04:30:36;;;;;;;20.87;7.47;;;17.80;1.00;;;;;;5073305;28;20177;-66
2022/05/23 04:35:49;;;;;;;32.17;8.03;;;17.80;1.00;;;;;;5073998;28;20880;-67
2022/05/23 04:38:15;;;;;;;22.60;8.07;;;17.90;1.00;;;;;;5071894;28;20212;-69
2022/05/23 04:40:41;;;;;;;16.27;7.57;;;17.90;1.00;;;;;;5073056;28;20233;-66
2022/05/23 04:43:06;;;;;;;10.40;7.80;;;17.90;1.00;;;;;;5073410;28;20241;-67
2022/05/23 04:45:32;;;;;;;15.60;7.50;;;17.90;1.00;;;;;;5073415;28;20169;-67
2022/05/23 04:50:41;;;;;;;14.67;7.77;;;18.20;1.00;;;;;;5072688;28;20257;-67
2022/05/23 04:53:07;;;;;;;11.60;7.67;;;18.10;1.00;;;;;;5072307;28;20180;-67
2022/05/23 04:55:33;;;;;;;9.90;8.10;;;17.90;1.00;;;;;;5073039;28;20169;-67
2022/05/23 04:57:59;;;;;;;11.60;7.70;;;17.80;1.00;;;;;;5072959;28;20214;-67
2022/05/23 05:00:29;;;;;;;9.10;7.80;;;17.80;1.00;;;;;;5072551;28;20254;-67
2022/05/23 05:02:59;;;;;;;13.10;8.03;;;17.90;1.00;;;;;;5072344;28;20171;-67
2022/05/23 05:05:25;;;;;;;9.03;7.93;;;18.20;1.00;;;;;;5072497;28;20189;-66
2022/05/23 05:07:51;;;;;;;10.47;7.93;;;18.30;1.00;;;;;;5072660;28;20255;-68
2022/05/23 05:10:18;;;;;;;9.33;8.43;;;18.20;1.00;;;;;;5072555;28;20259;-67
2022/05/23 05:12:44;;;;;;;9.13;8.17;;;18.10;1.00;;;;;;5072149;28;20191;-66
2022/05/23 05:15:10;;;;;;;10.47;7.90;;;18.00;1.00;;;;;;5072633;28;20204;-66
2022/05/23 05:17:36;;;;;;;12.27;8.20;;;17.90;1.00;;;;;;5072484;28;20204;-68
2022/05/23 05:20:02;;;;;;;12.17;8.53;;;17.90;1.00;;;;;;5072119;28;20172;-67
2022/05/23 05:22:28;;;;;;;10.70;8.40;;;18.10;1.00;;;;;;5072272;28;20177;-67
2022/05/23 05:24:53;;;;;;;11.47;8.20;;;18.30;1.00;;;;;;5071972;28;20249;-66
2022/05/23 05:27:19;;;;;;;11.63;8.23;;;18.40;1.00;;;;;;5072201;28;20549;-68
2022/05/23 05:29:45;;;;;;;10.60;8.10;;;18.50;1.00;;;;;;5071584;28;20522;-67
2022/05/23 05:32:16;;;;;;;11.93;7.73;;;18.40;1.00;;;;;;5071406;28;20172;-67
2022/05/23 05:34:44;;;;;;;11.30;8.03;;;18.50;1.00;;;;;;5071581;28;20173;-67
2022/05/23 05:37:15;;;;;;;11.45;7.68;;;18.60;1.00;;;;;;5072073;28;20208;-67
2022/05/23 05:39:42;;;;;;;10.80;7.67;;;18.80;1.00;;;;;;5071562;28;20322;-67
2022/05/23 05:42:13;;;;;;;10.20;7.63;;;19.00;1.00;;;;;;5071440;28;20609;-67
2022/05/23 05:44:43;;;;;;;9.88;7.70;;;19.00;1.00;;;;;;5072280;28;20206;-67
2022/05/23 05:47:12;;;;;;;11.10;7.90;;;18.90;1.00;;;;;;5071866;28;20165;-67
2022/05/23 05:49:43;;;;;;;11.47;7.43;;;18.80;1.00;;;;;;5071919;28;20248;-68
2022/05/23 05:52:12;;;;;;;11.13;7.93;;;18.90;1.00;;;;;;5072040;28;20172;-66
2022/05/23 05:54:40;;;;;;;13.63;7.30;;;19.00;1.00;;;;;;5071371;28;20525;-68
2022/05/23 05:57:08;;;;;;;10.68;7.15;;;19.20;1.00;;;;;;5070660;28;20277;-67
2022/05/23 05:59:34;;;;;;;12.47;6.47;;;19.10;1.00;;;;;;5071747;28;20633;-67
2022/05/23 06:02:00;;;;;;;8.43;7.40;;;19.10;1.00;;;;;;5071570;28;20235;-66
2022/05/23 06:04:26;;;;;;;8.90;5.90;;;19.30;1.00;;;;;;5071053;28;20605;-67
2022/05/23 06:12:19;;;;;;;10.45;6.13;;;19.80;1.00;;;;;;5072012;28;20188;-67
2022/05/23 06:14:45;;;;;;;18.48;6.50;;;19.70;1.00;;;;;;5071235;28;20202;-68
2022/05/23 06:17:11;;;;;;;27.83;7.28;;;19.80;1.00;;;;;;5071226;28;20215;-69
2022/05/23 06:19:43;;;;;;;6.80;4.80;;;19.90;1.00;;;;;;5070872;28;20169;-67
2022/05/23 06:22:10;;;;;;;10.48;5.55;;;20.10;1.00;;;;;;5071356;28;20161;-69
2022/05/23 06:24:36;;;;;;;5.60;4.28;;;20.10;1.00;;;;;;5071137;28;20584;-68
2022/05/23 06:27:03;;;;;;;9.30;4.90;;;20.00;99.90;;;;;;5071442;28;20176;-67
2022/05/23 06:29:29;;;;;;;5.97;3.30;;;20.10;99.90;;;;;;5070925;28;20606;-66
2022/05/23 06:31:55;;;;;;;5.35;3.50;;;20.10;99.90;;;;;;5070915;28;20168;-66
2022/05/23 06:34:20;;;;;;;5.97;3.03;;;20.00;1.00;;;;;;5071265;28;20168;-68
2022/05/23 06:36:46;;;;;;;6.38;3.50;;;20.00;99.90;;;;;;5070733;28;20208;-67
2022/05/23 06:39:12;;;;;;;10.10;4.10;;;20.00;99.90;;;;;;5071850;28;20169;-67
2022/05/23 06:41:37;;;;;;;4.95;3.60;;;20.00;1.00;;;;;;5070773;28;20632;-67
2022/05/23 06:44:03;;;;;;;5.90;3.88;;;20.10;99.90;;;;;;5074099;28;20573;-66
2022/05/23 06:46:29;;;;;;;6.53;3.80;;;20.10;1.00;;;;;;5067766;28;20397;-68
2022/05/23 06:48:54;;;;;;;6.20;4.00;;;20.30;99.90;;;;;;5063374;28;20177;-69
2022/05/23 06:51:20;;;;;;;6.85;3.65;;;20.40;99.90;;;;;;5074188;28;20172;-67
2022/05/23 06:53:45;;;;;;;5.93;3.60;;;20.40;99.90;;;;;;5063462;28;20205;-68
2022/05/23 06:56:12;;;;;;;9.68;3.60;;;20.40;1.00;;;;;;5053221;28;20165;-68
2022/05/23 06:58:39;;;;;;;4.07;3.58;;;20.40;99.90;;;;;;5054538;28;20169;-67
2022/05/23 07:01:05;;;;;;;5.95;4.70;;;20.50;1.00;;;;;;5065308;28;20212;-68
2022/05/23 07:03:30;;;;;;;6.90;5.20;;;20.30;1.00;;;;;;5072206;28;20277;-67
2022/05/23 07:14:08;;;;;;;5.95;4.15;;;19.80;1.00;;;;;;5053654;28;20168;-68
2022/05/23 07:16:34;;;;;;;10.70;5.50;;;20.00;1.00;;;;;;5060578;28;20208;-69
2022/05/23 07:19:02;;;;;;;7.65;4.50;;;20.30;1.00;;;;;;5055143;28;20182;-68
2022/05/23 07:21:28;;;;;;;4.85;4.32;;;20.50;1.00;;;;;;5070102;28;20655;-67
2022/05/23 07:23:55;;;;;;;6.72;4.13;;;20.70;1.00;;;;;;5059469;28;20204;-68
2022/05/23 07:26:20;;;;;;;5.30;3.80;;;20.90;1.00;;;;;;5062557;28;20184;-68
2022/05/23 07:28:47;;;;;;;5.32;3.65;;;20.90;1.00;;;;;;5073893;28;20509;-68
2022/05/23 07:31:13;;;;;;;4.25;3.85;;;21.00;1.00;;;;;;5068277;28;20180;-69
2022/05/23 07:33:40;;;;;;;4.70;3.40;;;21.10;99.90;;;;;;5069293;28;20180;-68
2022/05/23 07:36:07;;;;;;;4.03;3.55;;;21.10;99.90;;;;;;5063441;28;20192;-69
2022/05/23 07:38:33;;;;;;;6.43;3.70;;;21.20;75.40;;;;;;5062380;28;20193;-69
2022/05/23 07:40:59;;;;;;;7.72;3.47;;;21.60;99.90;;;;;;5067338;28;20619;-67
2022/05/23 07:43:25;;;;;;;5.30;3.70;;;22.30;99.90;;;;;;5066951;28;20211;-68
2022/05/23 07:45:52;;;;;;;5.28;3.70;;;22.60;99.90;;;;;;5069173;28;20257;-69
2022/05/23 07:48:18;;;;;;;8.00;3.85;;;22.30;1.00;;;;;;5073339;28;20246;-70
2022/05/23 07:50:45;;;;;;;10.52;3.58;;;22.60;1.00;;;;;;5066344;28;20177;-68
2022/05/23 08:01:24;;;;;;;9.73;3.85;;;25.70;1.00;;;;;;5052652;28;20228;-69
2022/05/23 08:03:50;;;;;;;4.13;3.17;;;26.40;1.00;;;;;;5064871;28;21893;-69
2022/05/23 08:06:16;;;;;;;3.17;2.88;;;27.10;99.90;;;;;;5054105;28;20172;-69
2022/05/23 08:08:42;;;;;;;4.18;2.75;;;27.30;99.90;;;;;;5058889;28;20187;-69
2022/05/23 08:11:09;;;;;;;8.43;3.28;;;27.30;99.90;;;;;;5053704;28;20185;-69
2022/05/23 08:13:37;;;;;;;8.10;2.97;;;27.90;99.90;;;;;;5052711;28;20181;-69
2022/05/23 08:16:03;;;;;;;4.30;3.15;;;27.50;99.90;;;;;;5065190;28;20188;-68
2022/05/23 08:18:29;;;;;;;6.47;3.08;;;27.60;99.90;;;;;;5062296;28;20204;-68
2022/05/23 08:20:54;;;;;;;6.60;3.30;;;27.90;99.90;;;;;;5060502;28;20249;-69
2022/05/23 08:23:21;;;;;;;5.00;3.38;;;28.50;99.90;;;;;;5053030;28;20291;-69
2022/05/23 08:25:46;;;;;;;5.30;2.95;;;28.80;99.90;;;;;;5060102;28;20180;-68
2022/05/23 08:28:13;;;;;;;7.18;3.30;;;30.80;99.90;;;;;;5072367;28;20230;-68
2022/05/23 08:30:39;;;;;;;2.92;2.63;;;32.70;99.90;;;;;;5062524;28;20188;-70
2022/05/23 08:33:05;;;;;;;3.55;2.63;;;33.50;99.90;;;;;;5055589;28;20272;-69
2022/05/23 08:35:31;;;;;;;6.32;2.75;;;34.20;95.80;;;;;;5060385;28;20609;-69
2022/05/23 08:37:58;;;;;;;6.47;3.05;;;35.20;81.20;;;;;;5065402;28;20209;-70
2022/05/23 08:40:52;;;;;;;3.97;2.95;;;35.30;61.60;;;;;;5063357;28;20647;-70
2022/05/23 08:43:27;;;;;;;3.75;2.90;;;34.90;57.20;;;;;;5062245;28;20264;-69
2022/05/23 08:45:57;;;;;;;4.45;3.10;;;33.80;53.60;;;;;;5061000;28;20187;-70
2022/05/23 08:48:30;;;;;;;7.13;2.95;;;33.30;52.90;;;;;;5061811;28;20181;-69
2022/05/23 08:51:10;;;;;;;2.92;2.70;;;34.00;53.20;;;;;;5056661;28;20185;-69
2022/05/23 08:53:44;;;;;;;10.32;3.88;;;34.60;49.30;;;;;;5065767;28;20164;-69
2022/05/23 08:56:22;;;;;;;4.95;2.55;;;34.80;46.50;;;;;;5058670;28;20180;-69
2022/05/23 08:58:54;;;;;;;8.40;3.72;;;34.20;40.60;;;;;;5063394;28;20200;-69
2022/05/23 09:01:38;;;;;;;4.82;3.30;;;33.30;40.50;;;;;;5052470;28;20300;-69
2022/05/23 09:04:42;;;;;;;3.67;3.00;;;33.10;60.50;;;;;;5060656;28;20196;-70
2022/05/23 09:07:26;;;;;;;3.67;2.97;;;32.30;40.00;;;;;;5071312;28;20215;-71
2022/05/23 09:09:56;;;;;;;4.90;2.70;;;33.50;60.50;;;;;;5067059;28;20176;-70
2022/05/23 09:12:21;;;;;;;3.03;2.72;;;34.60;33.40;;;;;;5057219;28;20209;-69
2022/05/23 09:14:47;;;;;;;3.75;2.50;;;35.20;27.60;;;;;;5052875;28;20213;-71
2022/05/23 09:17:35;;;;;;;5.78;2.90;;;35.00;21.80;;;;;;5057849;28;20572;-69
2022/05/23 09:20:11;;;;;;;5.93;2.75;;;34.30;23.00;;;;;;5051966;28;20259;-68
2022/05/23 09:22:52;;;;;;;2.45;2.25;;;33.60;25.30;;;;;;5058168;28;20179;-68
2022/05/23 09:25:22;;;;;;;6.13;3.22;;;33.10;25.70;;;;;;5070152;28;20654;-68
2022/05/23 09:28:09;;;;;;;4.07;2.80;;;32.70;27.40;;;;;;5068440;28;20275;-68
2022/05/23 09:30:38;;;;;;;5.03;2.58;;;31.90;30.10;;;;;;5059105;28;20267;-67
2022/05/23 09:33:20;;;;;;;6.90;4.60;;;30.60;32.10;;;;;;5061329;28;20181;-67
2022/05/23 09:35:45;;;;;;;2.95;1.63;;;30.00;38.30;;;;;;5068603;28;20176;-67
2022/05/23 09:38:25;;;;;;;1.77;1.67;;;28.90;40.30;;;;;;5065625;28;20218;-68
2022/05/23 09:40:52;;;;;;;2.78;1.83;;;27.90;46.60;;;;;;5069934;28;20187;-68
2022/05/23 09:49:14;;;;;;;4.50;1.90;;;27.00;89.40;;;;;;5061659;28;20234;-67
2022/05/23 09:51:50;;;;;;;5.90;2.90;;;27.10;91.10;;;;;;5060114;28;20180;-69
2022/05/23 09:54:28;;;;;;;6.38;3.88;;;27.00;98.60;;;;;;5062058;28;20657;-69
2022/05/23 09:56:56;;;;;;;3.75;2.58;;;26.80;99.90;;;;;;5071471;28;20298;-69
2022/05/23 09:59:33;;;;;;;2.55;1.67;;;26.70;99.20;;;;;;5069127;28;20177;-70
2022/05/23 10:02:31;;;;;;;4.80;2.35;;;26.20;99.90;;;;;;5062654;28;20294;-68
2022/05/23 10:04:57;;;;;;;7.07;2.63;;;25.40;99.90;;;;;;5053300;28;20696;-69
2022/05/23 10:07:47;;;;;;;3.35;2.40;;;24.80;99.90;;;;;;5058833;28;20187;-68
2022/05/23 10:10:47;;;;;;;2.20;2.10;;;24.80;1.00;;;;;;5057381;28;20179;-68
2022/05/23 10:13:13;;;;;;;5.72;3.28;;;24.20;1.00;;;;;;5047575;28;20194;-68
2022/05/23 10:15:52;;;;;;;2.60;2.25;;;24.30;1.00;;;;;;5052853;28;20620;-67
2022/05/23 10:18:30;;;;;;;3.38;2.50;;;24.20;1.00;;;;;;5056293;28;20219;-68
2022/05/23 10:20:58;;;;;;;2.80;2.50;;;24.20;34.80;;;;;;5066441;28;20177;-68
2022/05/23 10:23:30;;;;;;;3.42;2.33;;;23.90;99.90;;;;;;5060019;28;20213;-68
2022/05/23 10:26:15;;;;;;;4.22;2.95;;;23.90;90.60;;;;;;5054925;28;20161;-67
2022/05/23 10:28:53;;;;;;;3.03;2.78;;;24.10;99.90;;;;;;5054887;28;20181;-68
2022/05/23 10:31:34;;;;;;;5.28;3.35;;;24.40;99.90;;;;;;5055530;28;20165;-67
2022/05/23 10:34:04;;;;;;;6.07;3.28;;;24.40;99.90;;;;;;5063745;28;20263;-69
2022/05/23 10:36:31;;;;;;;2.88;2.65;;;24.60;99.90;;;;;;5075274;28;20208;-68
2022/05/23 10:42:15;;;;;;;4.13;3.60;;;24.20;1.00;;;;;;5075251;28;20199;-69
2022/05/23 10:44:52;;;;;;;2.85;2.65;;;24.20;1.00;;;;;;5067108;28;20191;-69
2022/05/23 10:47:24;;;;;;;9.45;3.72;;;24.10;1.00;;;;;;5063693;28;20613;-69
2022/05/23 10:49:57;;;;;;;5.28;3.40;;;24.10;1.00;;;;;;5056586;28;20188;-67
2022/05/23 10:52:36;;;;;;;7.78;3.90;;;24.10;99.90;;;;;;5055413;28;20162;-68
2022/05/23 10:55:08;;;;;;;8.35;3.58;;;24.40;99.90;;;;;;5059815;28;20172;-68
2022/05/23 10:58:02;;;;;;;4.55;3.83;;;24.60;99.90;;;;;;5074534;28;20220;-68
2022/05/23 11:01:06;;;;;;;4.82;3.08;;;24.80;2.70;;;;;;5074955;28;20173;-68
2022/05/23 11:03:52;;;;;;;6.13;3.72;;;24.60;1.00;;;;;;5062731;28;20275;-67
2022/05/23 11:06:55;;;;;;;5.25;3.50;;;24.70;1.00;;;;;;5053420;28;20639;-67
2022/05/23 11:09:39;;;;;;;6.47;3.92;;;24.80;1.00;;;;;;5074074;28;20196;-67
2022/05/23 11:12:11;;;;;;;3.60;3.30;;;24.70;99.90;;;;;;5075181;28;20175;-67
2022/05/23 11:14:45;;;;;;;5.22;3.47;;;24.50;99.90;;;;;;5069233;28;20183;-67
2022/05/23 11:17:29;;;;;;;3.20;3.00;;;23.70;1.00;;;;;;5064380;28;20250;-68
2022/05/23 11:20:20;;;;;;;8.50;3.30;;;23.20;99.90;;;;;;5074618;28;20178;-67
2022/05/23 11:22:53;;;;;;;5.30;3.60;;;22.70;1.00;;;;;;5074059;28;20521;-68
2022/05/23 11:25:36;;;;;;;6.15;4.32;;;22.40;1.00;;;;;;5074890;28;20165;-68
2022/05/23 11:34:31;;;;;;;5.07;3.88;;;20.30;22.90;;;;;;5074342;28;20530;-67
2022/05/23 11:37:09;;;;;;;5.40;4.03;;;20.00;40.30;;;;;;5073367;28;20209;-66
2022/05/23 11:39:56;;;;;;;7.60;4.63;;;19.80;44.00;;;;;;5072021;28;20259;-68
2022/05/23 11:42:31;;;;;;;10.83;4.70;;;19.80;57.60;;;;;;5062691;28;20236;-68
2022/05/23 11:48:49;;;;;;;7.17;5.43;;;19.60;82.30;;;;;;5056404;28;20214;-69
2022/05/23 11:51:24;;;;;;;5.30;4.80;;;19.50;96.80;;;;;;5065707;28;20185;-68
2022/05/23 11:53:56;;;;;;;10.70;5.47;;;19.50;97.00;;;;;;5050841;28;20189;-68
2022/05/23 11:56:43;;;;;;;6.93;4.77;;;19.60;99.90;;;;;;5062098;28;20168;-68
2022/05/23 11:59:29;;;;;;;7.43;5.10;;;19.60;91.00;;;;;;5063686;28;20648;-68
2022/05/23 12:02:21;;;;;;;6.73;5.53;;;19.60;99.40;;;;;;5051385;28;20235;-69
2022/05/23 12:04:49;;;;;;;10.27;5.40;;;19.60;99.90;;;;;;5063735;28;20384;-68
2022/05/23 12:07:53;;;;;;;8.03;5.70;;;19.60;99.90;;;;;;5062280;28;20252;-67
2022/05/23 12:10:21;;;;;;;7.87;6.17;;;19.60;99.90;;;;;;5063507;28;20173;-67
2022/05/23 12:12:53;;;;;;;5.83;5.33;;;19.70;99.90;;;;;;5071749;28;20188;-66
2022/05/23 12:15:44;;;;;;;7.80;5.77;;;19.50;99.90;;;;;;5051956;28;20310;-67
2022/05/23 12:18:21;;;;;;;7.43;6.73;;;19.60;99.90;;;;;;5056194;28;20216;-67
2022/05/23 12:20:50;;;;;;;9.27;6.30;;;19.60;99.90;;;;;;5053072;28;20173;-66
2022/05/23 12:23:41;;;;;;;10.87;6.40;;;19.70;99.90;;;;;;5061310;28;20180;-68
2022/05/23 12:26:10;;;;;;;8.70;6.13;;;19.60;99.90;;;;;;5069022;28;20652;-68
2022/05/23 12:29:23;;;;;;;14.30;7.07;;;19.70;99.90;;;;;;5053351;28;20173;-68
2022/05/23 12:32:11;;;;;;;13.17;8.20;;;19.60;99.90;;;;;;5048371;28;20189;-68
2022/05/23 12:34:47;;;;;;;15.20;8.30;;;19.60;99.90;;;;;;5064184;28;20188;-67
2022/05/23 12:37:29;;;;;;;14.40;9.25;;;19.60;99.90;;;;;;5052569;28;20296;-68
2022/05/23 12:40:12;;;;;;;16.53;9.60;;;19.70;99.90;;;;;;5061342;28;20286;-68
2022/05/23 12:42:41;;;;;;;13.45;10.07;;;19.80;99.90;;;;;;5054903;28;20280;-68
2022/05/23 12:45:23;;;;;;;16.15;9.77;;;19.80;99.90;;;;;;5052996;28;20176;-67
2022/05/23 12:48:10;;;;;;;13.68;9.35;;;19.90;99.90;;;;;;5059271;28;20165;-66
2022/05/23 12:50:58;;;;;;;18.92;10.48;;;20.00;99.90;;;;;;5053283;28;20173;-67
2022/05/23 12:53:49;;;;;;;14.77;9.57;;;20.00;99.90;;;;;;5051413;28;20181;-68
2022/05/23 12:56:33;;;;;;;14.50;11.57;;;19.90;99.90;;;;;;5052522;28;20658;-67
2022/05/23 12:59:26;;;;;;;14.15;10.65;;;19.90;99.90;;;;;;5062764;28;20179;-68
2022/05/23 13:01:59;;;;;;;15.57;9.97;;;19.80;99.90;;;;;;5071679;28;20373;-68
2022/05/23 13:04:38;;;;;;;18.23;13.10;;;19.70;99.90;;;;;;5051386;28;20193;-68
2022/05/23 13:07:24;;;;;;;23.20;13.63;;;19.60;99.90;;;;;;5053031;28;20199;-68
2022/05/23 13:10:01;;;;;;;14.50;12.88;;;19.50;99.90;;;;;;5052094;28;20178;-68
2022/05/23 13:12:39;;;;;;;20.53;13.80;;;19.30;99.90;;;;;;5070061;28;20156;-67
2022/05/23 13:15:05;;;;;;;21.20;15.10;;;19.50;99.90;;;;;;5071608;28;20153;-67
2022/05/23 13:17:43;;;;;;;16.23;14.53;;;19.50;99.90;;;;;;5072219;28;20219;-67
2022/05/23 13:23:16;;;;;;;14.33;12.20;;;19.50;99.90;;;;;;5051902;28;20600;-67
2022/05/23 13:25:43;;;;;;;16.35;12.35;;;19.60;99.90;;;;;;5064855;28;20242;-66
2022/05/23 13:28:12;;;;;;;17.00;12.90;;;19.80;99.90;;;;;;5071026;28;20519;-67
2022/05/23 13:30:47;;;;;;;14.45;12.93;;;20.00;99.90;;;;;;5071427;28;20643;-66
2022/05/23 13:33:28;;;;;;;16.55;13.35;;;20.10;99.90;;;;;;5071826;28;20207;-68
2022/05/23 13:36:00;;;;;;;16.20;14.43;;;20.10;99.90;;;;;;5071431;28;20164;-68
2022/05/23 13:38:28;;;;;;;15.88;13.38;;;20.20;99.50;;;;;;5062850;28;20667;-68
2022/05/23 13:40:57;;;;;;;11.88;10.68;;;20.00;99.90;;;;;;5061288;28;20256;-68
2022/05/23 13:43:31;;;;;;;12.75;11.45;;;19.40;88.40;;;;;;5067803;28;20173;-68
2022/05/23 13:46:11;;;;;;;16.70;12.20;;;19.00;99.90;;;;;;5051480;28;20678;-67
2022/05/23 13:48:46;;;;;;;14.17;12.77;;;18.60;99.90;;;;;;5062444;28;20181;-67
2022/05/23 13:51:38;;;;;;;14.97;13.37;;;18.80;99.90;;;;;;5070392;28;20176;-68
2022/05/23 13:54:19;;;;;;;16.30;13.27;;;19.10;99.90;;;;;;5064655;28;20181;-68
2022/05/23 13:56:51;;;;;;;13.82;12.48;;;19.60;99.90;;;;;;5066031;28;20237;-68
2022/05/23 13:59:22;;;;;;;16.85;13.18;;;20.00;99.90;;;;;;5093337;28;20187;-68
2022/05/23 14:01:57;;;;;;;15.75;13.75;;;20.10;99.90;;;;;;5093772;28;20226;-68
2022/05/23 14:04:27;;;;;;;16.73;13.25;;;19.90;98.70;;;;;;5054725;28;20185;-67
2022/05/23 14:06:59;;;;;;;19.50;14.32;;;20.00;98.10;;;;;;5066829;28;20177;-68
2022/05/23 14:09:25;;;;;;;18.08;13.65;;;20.00;99.90;;;;;;5069650;28;20172;-68
2022/05/23 14:11:54;;;;;;;21.05;15.35;;;19.80;99.90;;;;;;5061323;28;20204;-68
2022/05/23 14:14:51;;;;;;;23.33;16.08;;;19.70;99.90;;;;;;5075987;28;20203;-69